PGT255 LTAI-LGSK
Flight info
| Callsign | PGT255 |
|---|---|
| Flight time | N/A |
| Altitude | 32000 |
| Route | NESIL UN135 IMR/N0427F280 N127 RIKSO DCT KOROS UW58 ETEKA |
| Aircraft | A320/M-SDE3FGHIRWY/LB1 |
Departure
| Time | 2026-05-06 14:56 |
|---|---|
| Airport | Antalya International Airport (LTAI) |
Arrival
| Time | N/A |
|---|---|
| Airport | Skiathos Island National Airport (LGSK) |
| Time | Latitude | Longitude | Altitude | Speed | Heading |
|---|---|---|---|---|---|
| 2026-05-06 14:38 | 36.89508 | 30.80565 | 177 ft | 0 kts | 186° |
| 2026-05-06 14:48 | 36.89512 | 30.80565 | 177 ft | 3 kts | 185° |
| 2026-05-06 14:48 | 36.89538 | 30.80565 | 177 ft | 4 kts | 166° |
| 2026-05-06 14:48 | 36.89562 | 30.80552 | 177 ft | 4 kts | 133° |
| 2026-05-06 14:48 | 36.89574 | 30.80524 | 177 ft | 3 kts | 97° |
| 2026-05-06 14:49 | 36.89575 | 30.80519 | 177 ft | 1 kts | 95° |
| 2026-05-06 14:50 | 36.89575 | 30.80520 | 177 ft | 1 kts | 95° |
| 2026-05-06 14:50 | 36.89572 | 30.80563 | 177 ft | 6 kts | 95° |
| 2026-05-06 14:51 | 36.89566 | 30.80644 | 176 ft | 12 kts | 85° |
| 2026-05-06 14:51 | 36.89627 | 30.80694 | 177 ft | 13 kts | 6° |
| 2026-05-06 14:51 | 36.89716 | 30.80706 | 177 ft | 13 kts | 6° |
| 2026-05-06 14:51 | 36.89826 | 30.80721 | 178 ft | 19 kts | 6° |
| 2026-05-06 14:52 | 36.89946 | 30.80738 | 178 ft | 16 kts | 6° |
| 2026-05-06 14:52 | 36.90053 | 30.80752 | 179 ft | 16 kts | 6° |
| 2026-05-06 14:52 | 36.90200 | 30.80772 | 180 ft | 22 kts | 6° |
| 2026-05-06 14:52 | 36.90344 | 30.80792 | 180 ft | 20 kts | 5° |
| 2026-05-06 14:53 | 36.90471 | 30.80809 | 181 ft | 17 kts | 7° |
| 2026-05-06 14:53 | 36.90581 | 30.80825 | 182 ft | 15 kts | 6° |
| 2026-05-06 14:53 | 36.90675 | 30.80838 | 182 ft | 13 kts | 6° |
| 2026-05-06 14:53 | 36.90759 | 30.80849 | 182 ft | 11 kts | 6° |
| 2026-05-06 14:54 | 36.90829 | 30.80859 | 183 ft | 12 kts | 6° |
| 2026-05-06 14:54 | 36.90966 | 30.80879 | 183 ft | 22 kts | 7° |
| 2026-05-06 14:54 | 36.91096 | 30.80901 | 184 ft | 15 kts | 13° |
| 2026-05-06 14:54 | 36.91136 | 30.80993 | 185 ft | 12 kts | 97° |
| 2026-05-06 14:55 | 36.91124 | 30.81104 | 185 ft | 13 kts | 102° |
| 2026-05-06 14:55 | 36.91024 | 30.81123 | 193 ft | 20 kts | 187° |
| 2026-05-06 14:55 | 36.90702 | 30.81080 | 183 ft | 79 kts | 186° |
| 2026-05-06 14:55 | 36.89955 | 30.80976 | 180 ft | 134 kts | 187° |
| 2026-05-06 14:56 | 36.88897 | 30.80806 | 355 ft | 163 kts | 186° |
| 2026-05-06 14:56 | 36.87773 | 30.80639 | 1024 ft | 162 kts | 185° |
| 2026-05-06 14:56 | 36.86640 | 30.80560 | 1844 ft | 165 kts | 179° |
| 2026-05-06 14:56 | 36.85482 | 30.80660 | 2588 ft | 172 kts | 168° |
| 2026-05-06 14:57 | 36.84239 | 30.81010 | 2998 ft | 194 kts | 165° |
| 2026-05-06 14:57 | 36.82867 | 30.81424 | 3337 ft | 218 kts | 166° |
| 2026-05-06 14:57 | 36.81302 | 30.81858 | 3736 ft | 242 kts | 167° |
| 2026-05-06 14:57 | 36.79574 | 30.82288 | 4191 ft | 262 kts | 168° |
| 2026-05-06 14:58 | 36.77743 | 30.82698 | 4914 ft | 271 kts | 169° |
| 2026-05-06 14:58 | 36.75857 | 30.83087 | 5632 ft | 279 kts | 171° |
| 2026-05-06 14:58 | 36.72230 | 30.83573 | 7030 ft | 288 kts | 185° |
| 2026-05-06 14:58 | 36.68513 | 30.81797 | 8575 ft | 291 kts | 221° |
| 2026-05-06 14:59 | 36.66261 | 30.77743 | 10170 ft | 287 kts | 257° |
| 2026-05-06 14:59 | 36.65818 | 30.72560 | 11025 ft | 313 kts | 268° |
| 2026-05-06 14:59 | 36.65431 | 30.67093 | 12448 ft | 319 kts | 272° |
| 2026-05-06 14:59 | 36.66005 | 30.61620 | 13868 ft | 322 kts | 283° |
| 2026-05-06 15:00 | 36.66790 | 30.56083 | 15137 ft | 326 kts | 283° |
| 2026-05-06 15:00 | 36.67577 | 30.50500 | 16414 ft | 330 kts | 283° |
| 2026-05-06 15:00 | 36.68404 | 30.44849 | 17660 ft | 332 kts | 288° |
| 2026-05-06 15:00 | 36.70549 | 30.39789 | 18824 ft | 332 kts | 312° |
| 2026-05-06 15:01 | 36.73911 | 30.35832 | 19842 ft | 336 kts | 317° |
| 2026-05-06 15:01 | 36.77344 | 30.31841 | 20933 ft | 339 kts | 317° |
| 2026-05-06 15:01 | 36.80802 | 30.27796 | 21934 ft | 343 kts | 317° |
| 2026-05-06 15:01 | 36.84302 | 30.23711 | 22955 ft | 347 kts | 317° |
| 2026-05-06 15:02 | 36.87845 | 30.19576 | 23872 ft | 351 kts | 317° |
| 2026-05-06 15:02 | 36.91436 | 30.15374 | 24665 ft | 355 kts | 317° |
| 2026-05-06 15:02 | 36.94964 | 30.11238 | 25445 ft | 358 kts | 317° |